Time;durP1;ratioP1;P1;durP2;ratioP2;P2;SDS_P1;SDS_P2;PMS_P1;PMS_P2;Temp;Humidity;BMP_temperature;BMP_pressure;BME280_temperature;BME280_humidity;BME280_pressure;Samples;Min_cycle;Max_cycle;Signal;HPM_P1;HPM_P2
2021/01/06 00:01:32;;;;;;;13.15;7.78;;;;;;;;;;5071666;28;20473;-72
2021/01/06 00:03:58;;;;;;;22.58;12.95;;;;;;;;;;5072077;28;20021;-72
2021/01/06 00:06:26;;;;;;;11.60;6.43;;;;;;;;;;5072304;28;20036;-72
2021/01/06 00:08:52;;;;;;;25.73;13.43;;;;;;;;;;5072126;28;20024;-72
2021/01/06 00:11:18;;;;;;;14.38;7.78;;;;;;;;;;5072329;28;20023;-72
2021/01/06 00:13:45;;;;;;;15.32;7.25;;;;;;;;;;5070689;28;20069;-72
2021/01/06 00:16:11;;;;;;;15.82;8.20;;;;;;;;;;5072263;28;20021;-72
2021/01/06 00:18:38;;;;;;;16.25;7.80;;;;;;;;;;5070899;28;20104;-73
2021/01/06 00:21:04;;;;;;;19.45;9.40;;;;;;;;;;5072052;28;20025;-72
2021/01/06 00:23:30;;;;;;;23.08;13.30;;;;;;;;;;5070897;28;20162;-72
2021/01/06 00:25:56;;;;;;;20.38;13.00;;;;;;;;;;5071918;28;20027;-72
2021/01/06 00:28:22;;;;;;;18.27;9.15;;;;;;;;;;5072128;28;20055;-72
2021/01/06 00:30:50;;;;;;;17.65;8.73;;;;;;;;;;5070538;28;20377;-72
2021/01/06 00:33:17;;;;;;;22.80;12.90;;;;;;;;;;5070802;28;20342;-73
2021/01/06 00:35:48;;;;;;;12.23;6.47;;;;;;;;;;5071775;28;20349;-73
2021/01/06 00:38:14;;;;;;;24.95;12.55;;;;;;;;;;5071792;28;20094;-73
2021/01/06 00:40:43;;;;;;;23.92;13.75;;;;;;;;;;5071867;28;20036;-73
2021/01/06 00:43:09;;;;;;;18.65;9.43;;;;;;;;;;5071656;28;20048;-73
2021/01/06 00:45:35;;;;;;;12.80;6.00;;;;;;;;;;5070632;28;20062;-73
2021/01/06 00:48:03;;;;;;;17.83;7.53;;;;;;;;;;5071720;28;20017;-73
2021/01/06 00:50:29;;;;;;;23.92;13.35;;;;;;;;;;5071943;28;20059;-73
2021/01/06 00:52:59;;;;;;;24.52;10.82;;;;;;;;;;5069713;28;20354;-73
2021/01/06 00:55:25;;;;;;;20.85;9.32;;;;;;;;;;5068948;28;20046;-73
2021/01/06 00:57:51;;;;;;;19.40;10.20;;;;;;;;;;5069488;28;20437;-73
2021/01/06 01:00:19;;;;;;;22.20;10.55;;;;;;;;;;5071800;28;20025;-73
2021/01/06 01:02:50;;;;;;;18.48;10.10;;;;;;;;;;5070524;28;20479;-73
2021/01/06 01:05:16;;;;;;;17.65;8.35;;;;;;;;;;5071774;28;20023;-73
2021/01/06 01:07:42;;;;;;;22.52;10.80;;;;;;;;;;5070416;28;20025;-73
2021/01/06 01:10:08;;;;;;;25.90;12.27;;;;;;;;;;5070162;28;20023;-73
2021/01/06 01:12:34;;;;;;;12.93;6.80;;;;;;;;;;5072438;28;20046;-73
2021/01/06 01:15:00;;;;;;;24.90;11.18;;;;;;;;;;5075400;28;20021;-73
2021/01/06 01:17:26;;;;;;;17.27;7.78;;;;;;;;;;5073987;28;20064;-73
2021/01/06 01:19:52;;;;;;;22.08;10.38;;;;;;;;;;5074950;28;20017;-72
2021/01/06 01:22:18;;;;;;;16.20;6.60;;;;;;;;;;5073853;28;20480;-72
2021/01/06 01:24:44;;;;;;;29.85;13.90;;;;;;;;;;5074834;28;20032;-73
2021/01/06 01:27:10;;;;;;;23.90;12.27;;;;;;;;;;5073640;28;20043;-73
2021/01/06 01:29:36;;;;;;;23.48;13.38;;;;;;;;;;5075341;28;20059;-72
2021/01/06 01:32:02;;;;;;;14.68;6.93;;;;;;;;;;5075024;28;20115;-72
2021/01/06 01:34:28;;;;;;;23.08;10.25;;;;;;;;;;5075355;28;20063;-73
2021/01/06 01:36:54;;;;;;;23.42;8.88;;;;;;;;;;5073415;28;20020;-72
2021/01/06 01:39:20;;;;;;;26.23;12.05;;;;;;;;;;5073544;28;20032;-73
2021/01/06 01:41:46;;;;;;;20.10;11.68;;;;;;;;;;5074867;28;20417;-73
2021/01/06 01:44:13;;;;;;;17.60;7.25;;;;;;;;;;5074480;28;20039;-73
2021/01/06 01:46:50;;;;;;;19.17;9.65;;;;;;;;;;5074761;28;20031;-72
2021/01/06 01:49:19;;;;;;;18.23;7.88;;;;;;;;;;5074776;28;20024;-73
2021/01/06 01:51:48;;;;;;;16.88;8.40;;;;;;;;;;5074696;28;20021;-72
2021/01/06 01:54:15;;;;;;;15.20;7.10;;;;;;;;;;5074420;28;20082;-72
2021/01/06 01:56:45;;;;;;;20.60;11.80;;;;;;;;;;5074639;28;20074;-72
2021/01/06 01:59:17;;;;;;;22.10;12.48;;;;;;;;;;5072968;28;20484;-72
2021/01/06 02:01:44;;;;;;;21.40;11.82;;;;;;;;;;5074531;28;20027;-72
2021/01/06 02:04:19;;;;;;;13.43;6.40;;;;;;;;;;5074261;28;20057;-72
2021/01/06 02:06:50;;;;;;;20.83;12.43;;;;;;;;;;5074363;28;20020;-72
2021/01/06 02:09:22;;;;;;;21.25;11.40;;;;;;;;;;5073090;28;20106;-72
2021/01/06 02:11:54;;;;;;;23.10;12.25;;;;;;;;;;5074006;28;20474;-72
2021/01/06 02:14:32;;;;;;;15.90;8.65;;;;;;;;;;5072707;28;20027;-72
2021/01/06 02:17:12;;;;;;;17.48;9.52;;;;;;;;;;5074013;28;20009;-72
2021/01/06 02:19:42;;;;;;;18.10;10.53;;;;;;;;;;5074169;28;20020;-72
2021/01/06 02:22:10;;;;;;;18.00;7.55;;;;;;;;;;5073840;28;20103;-72
2021/01/06 02:24:36;;;;;;;20.08;12.80;;;;;;;;;;5072056;28;20020;-72
2021/01/06 02:27:02;;;;;;;18.95;10.27;;;;;;;;;;5073811;28;20476;-72
2021/01/06 02:29:29;;;;;;;15.88;7.95;;;;;;;;;;5073993;28;20047;-71
2021/01/06 02:31:55;;;;;;;14.30;7.97;;;;;;;;;;5073779;28;20020;-73
2021/01/06 02:34:21;;;;;;;19.85;10.20;;;;;;;;;;5072681;28;20028;-73
2021/01/06 02:36:47;;;;;;;25.35;10.50;;;;;;;;;;5073846;28;20024;-73
2021/01/06 02:39:13;;;;;;;21.90;12.13;;;;;;;;;;5072226;28;20111;-73
2021/01/06 02:41:40;;;;;;;20.70;12.00;;;;;;;;;;5073792;28;20123;-73
2021/01/06 02:44:07;;;;;;;19.92;11.98;;;;;;;;;;5073158;28;20031;-73
2021/01/06 02:46:34;;;;;;;17.10;8.63;;;;;;;;;;5073658;28;20059;-73
2021/01/06 02:49:00;;;;;;;14.02;6.18;;;;;;;;;;5073404;28;20405;-73
2021/01/06 02:51:30;;;;;;;21.48;10.30;;;;;;;;;;5073243;28;20027;-73
2021/01/06 02:53:58;;;;;;;9.30;5.15;;;;;;;;;;5073285;28;20096;-72
2021/01/06 02:56:24;;;;;;;13.13;6.13;;;;;;;;;;5073190;28;20027;-72
2021/01/06 02:58:51;;;;;;;16.60;8.55;;;;;;;;;;5071991;28;20019;-72
2021/01/06 03:01:19;;;;;;;16.05;7.68;;;;;;;;;;5073107;28;20125;-72
2021/01/06 03:03:45;;;;;;;21.40;11.32;;;;;;;;;;5071963;28;20153;-72
2021/01/06 03:06:14;;;;;;;15.77;8.50;;;;;;;;;;5073009;28;20024;-72
2021/01/06 03:08:40;;;;;;;21.08;13.50;;;;;;;;;;5073486;28;20021;-72
2021/01/06 03:11:07;;;;;;;13.63;5.93;;;;;;;;;;5072893;28;20023;-72
2021/01/06 03:13:34;;;;;;;13.25;6.63;;;;;;;;;;5073196;28;20028;-72
2021/01/06 03:16:00;;;;;;;19.45;8.60;;;;;;;;;;5073076;28;20051;-72
2021/01/06 03:18:26;;;;;;;14.93;7.40;;;;;;;;;;5073286;28;20020;-72
2021/01/06 03:20:54;;;;;;;21.17;10.02;;;;;;;;;;5072939;28;20125;-72
2021/01/06 03:23:39;;;;;;;20.45;13.60;;;;;;;;;;5072639;28;20023;-72
2021/01/06 03:26:06;;;;;;;20.98;11.23;;;;;;;;;;5072657;28;20032;-72
2021/01/06 03:28:34;;;;;;;18.13;7.45;;;;;;;;;;5071594;28;20078;-72
2021/01/06 03:31:03;;;;;;;20.10;11.52;;;;;;;;;;5072595;28;20023;-72
2021/01/06 03:33:33;;;;;;;22.20;11.73;;;;;;;;;;5072915;28;20056;-72
2021/01/06 03:35:59;;;;;;;;;;;;;;;;;;5070726;28;20031;-72
2021/01/06 03:38:33;;;;;;;10.88;5.63;;;;;;;;;;5071384;28;19900;-72
2021/01/06 03:41:00;;;;;;;19.30;11.45;;;;;;;;;;5070625;28;20040;-72
2021/01/06 03:43:27;;;;;;;21.20;12.30;;;;;;;;;;5072575;28;20028;-72
2021/01/06 03:45:55;;;;;;;15.65;9.05;;;;;;;;;;5072916;28;20055;-72
2021/01/06 03:48:21;;;;;;;14.40;7.18;;;;;;;;;;5072287;28;20092;-72
2021/01/06 03:50:51;;;;;;;15.73;7.38;;;;;;;;;;5071256;28;20065;-72
2021/01/06 03:53:17;;;;;;;6.90;3.70;;;;;;;;;;5070979;28;20457;-72
2021/01/06 03:55:57;;;;;;;20.13;12.43;;;;;;;;;;5072160;28;20025;-71
2021/01/06 03:58:25;;;;;;;18.98;12.45;;;;;;;;;;5072346;28;20017;-72
2021/01/06 04:00:59;;;;;;;13.88;7.35;;;;;;;;;;5072386;28;20023;-72
2021/01/06 04:03:29;;;;;;;20.63;12.75;;;;;;;;;;5071050;28;20024;-72
2021/01/06 04:05:56;;;;;;;17.65;9.18;;;;;;;;;;5072441;28;20019;-72
2021/01/06 04:08:28;;;;;;;20.27;12.73;;;;;;;;;;5072133;28;20051;-72
2021/01/06 04:10:55;;;;;;;20.17;10.48;;;;;;;;;;5072318;28;20021;-71
2021/01/06 04:13:22;;;;;;;9.98;4.85;;;;;;;;;;5072424;28;20113;-72
2021/01/06 04:15:48;;;;;;;15.40;8.27;;;;;;;;;;5072270;28;20013;-72
2021/01/06 04:18:14;;;;;;;20.92;13.77;;;;;;;;;;5071688;28;20044;-72
2021/01/06 04:20:42;;;;;;;17.52;9.18;;;;;;;;;;5072208;28;20017;-72
2021/01/06 04:23:10;;;;;;;17.67;9.48;;;;;;;;;;5071958;28;20067;-72
2021/01/06 04:25:38;;;;;;;18.95;11.65;;;;;;;;;;5072465;28;20016;-72
2021/01/06 04:28:08;;;;;;;17.60;10.02;;;;;;;;;;5070896;28;20399;-72
2021/01/06 04:30:40;;;;;;;16.45;7.72;;;;;;;;;;5072108;28;20017;-72
2021/01/06 04:33:09;;;;;;;15.43;8.18;;;;;;;;;;5071986;28;20024;-72
2021/01/06 04:35:36;;;;;;;14.23;6.95;;;;;;;;;;5071909;28;20027;-72
2021/01/06 04:38:02;;;;;;;23.88;11.45;;;;;;;;;;5071800;28;20012;-72
2021/01/06 04:40:33;;;;;;;9.00;4.80;;;;;;;;;;5071698;28;20384;-72
2021/01/06 04:43:02;;;;;;;14.20;7.95;;;;;;;;;;5072012;28;20060;-73
2021/01/06 04:45:31;;;;;;;23.67;12.20;;;;;;;;;;5072028;28;20070;-72
2021/01/06 04:48:08;;;;;;;15.23;7.68;;;;;;;;;;5073689;28;20020;-72
2021/01/06 04:50:40;;;;;;;21.13;9.57;;;;;;;;;;5075884;28;20016;-72
2021/01/06 04:53:12;;;;;;;17.85;11.30;;;;;;;;;;5074238;28;20107;-72
2021/01/06 04:55:38;;;;;;;16.98;7.80;;;;;;;;;;5075740;28;20031;-73
2021/01/06 04:58:14;;;;;;;19.63;10.68;;;;;;;;;;5075014;28;20016;-73
2021/01/06 05:00:59;;;;;;;20.13;10.80;;;;;;;;;;5074412;28;20471;-72
2021/01/06 05:03:44;;;;;;;21.58;10.80;;;;;;;;;;5074081;28;20475;-72
2021/01/06 05:06:27;;;;;;;20.75;10.40;;;;;;;;;;5075360;28;20019;-72
2021/01/06 05:08:54;;;;;;;23.33;11.25;;;;;;;;;;5075215;28;20021;-72
2021/01/06 05:11:20;;;;;;;22.45;12.57;;;;;;;;;;5075279;28;20036;-71
2021/01/06 05:13:51;;;;;;;18.70;9.73;;;;;;;;;;5075104;28;20028;-72
2021/01/06 05:16:20;;;;;;;17.58;7.32;;;;;;;;;;5073772;28;20453;-72
2021/01/06 05:18:46;;;;;;;13.68;6.05;;;;;;;;;;5075370;28;20062;-72
2021/01/06 05:21:13;;;;;;;18.55;9.48;;;;;;;;;;5073536;28;20350;-72
2021/01/06 05:23:41;;;;;;;16.70;7.22;;;;;;;;;;5075224;28;20016;-73
2021/01/06 05:26:07;;;;;;;12.38;6.07;;;;;;;;;;5074665;28;20024;-73
2021/01/06 05:28:33;;;;;;;17.95;7.75;;;;;;;;;;5073864;28;20473;-73
2021/01/06 05:30:59;;;;;;;17.30;8.43;;;;;;;;;;5075143;28;20024;-73
2021/01/06 05:33:54;;;;;;;16.65;9.45;;;;;;;;;;5074930;28;20368;-73
2021/01/06 05:36:26;;;;;;;10.38;4.70;;;;;;;;;;5068944;28;20032;-73
2021/01/06 05:38:52;;;;;;;17.15;8.40;;;;;;;;;;5074618;28;20028;-73
2021/01/06 05:41:18;;;;;;;22.20;9.75;;;;;;;;;;5074435;28;20055;-73
2021/01/06 05:43:45;;;;;;;17.83;9.43;;;;;;;;;;5074786;28;20052;-72
2021/01/06 05:46:32;;;;;;;20.95;12.07;;;;;;;;;;5074232;28;20376;-73
2021/01/06 05:49:04;;;;;;;18.45;10.98;;;;;;;;;;5074851;28;20028;-72
2021/01/06 05:51:34;;;;;;;19.52;10.25;;;;;;;;;;5074684;28;20108;-72
2021/01/06 05:54:00;;;;;;;13.63;7.50;;;;;;;;;;5074386;28;20423;-72
2021/01/06 05:56:35;;;;;;;21.33;9.40;;;;;;;;;;5074373;28;20020;-73
2021/01/06 05:59:20;;;;;;;11.63;5.63;;;;;;;;;;5073379;28;20059;-73
2021/01/06 06:02:00;;;;;;;9.68;4.32;;;;;;;;;;5074513;28;20016;-73
2021/01/06 06:04:35;;;;;;;19.27;10.73;;;;;;;;;;5072997;28;20035;-73
2021/01/06 06:07:13;;;;;;;18.48;10.27;;;;;;;;;;5074507;28;20090;-73
2021/01/06 06:09:48;;;;;;;16.85;10.15;;;;;;;;;;5074427;28;20020;-73
2021/01/06 06:12:33;;;;;;;21.27;10.95;;;;;;;;;;5074111;28;20023;-73
2021/01/06 06:15:07;;;;;;;16.95;10.90;;;;;;;;;;5074017;28;20070;-73
2021/01/06 06:17:38;;;;;;;10.15;4.53;;;;;;;;;;5074452;28;20020;-73
2021/01/06 06:20:07;;;;;;;16.02;8.65;;;;;;;;;;5074140;28;20017;-72
2021/01/06 06:22:40;;;;;;;9.40;4.15;;;;;;;;;;5074142;28;20458;-73
2021/01/06 06:25:25;;;;;;;16.08;8.32;;;;;;;;;;5074067;28;20032;-73
2021/01/06 06:28:01;;;;;;;14.20;6.38;;;;;;;;;;5074072;28;20044;-73
2021/01/06 06:30:33;;;;;;;15.52;8.95;;;;;;;;;;5073845;28;20028;-73
2021/01/06 06:33:00;;;;;;;15.30;8.02;;;;;;;;;;5073958;28;20032;-73
2021/01/06 06:35:38;;;;;;;10.70;5.78;;;;;;;;;;5073675;28;20460;-73
2021/01/06 06:38:06;;;;;;;16.63;9.95;;;;;;;;;;5073750;28;20095;-73
2021/01/06 06:40:47;;;;;;;9.15;4.28;;;;;;;;;;5072105;28;20052;-73
2021/01/06 06:43:31;;;;;;;23.27;10.82;;;;;;;;;;5072211;28;20077;-73
2021/01/06 06:46:20;;;;;;;14.70;7.68;;;;;;;;;;5073684;28;20096;-73
2021/01/06 06:48:56;;;;;;;19.85;10.27;;;;;;;;;;5073034;28;20032;-73
2021/01/06 06:51:25;;;;;;;14.23;5.75;;;;;;;;;;5073372;28;20027;-72
2021/01/06 06:54:24;;;;;;;19.75;8.88;;;;;;;;;;5073266;28;20028;-72
2021/01/06 06:56:50;;;;;;;13.80;6.60;;;;;;;;;;5071723;28;20033;-72
2021/01/06 06:59:20;;;;;;;13.57;5.45;;;;;;;;;;5072939;28;20016;-73
2021/01/06 07:01:46;;;;;;;;;;;;;;;;;;5073461;28;20357;-72
2021/01/06 07:04:24;;;;;;;13.80;6.55;;;;;;;;;;5073070;28;19904;-72
2021/01/06 07:06:52;;;;;;;18.23;9.02;;;;;;;;;;5071910;28;20190;-72
2021/01/06 07:09:21;;;;;;;14.15;5.25;;;;;;;;;;5072957;28;20023;-72
2021/01/06 07:11:48;;;;;;;13.48;7.07;;;;;;;;;;5072922;28;20060;-72
2021/01/06 07:14:21;;;;;;;19.75;9.98;;;;;;;;;;5072565;28;20511;-72
2021/01/06 07:16:53;;;;;;;17.70;9.60;;;;;;;;;;5073115;28;20021;-72
2021/01/06 07:19:22;;;;;;;19.52;10.48;;;;;;;;;;5072715;28;20388;-73
2021/01/06 07:21:53;;;;;;;19.88;10.23;;;;;;;;;;5072995;28;20021;-73
2021/01/06 07:24:21;;;;;;;22.95;9.30;;;;;;;;;;5072570;28;20044;-73
2021/01/06 07:26:49;;;;;;;16.83;10.38;;;;;;;;;;5072808;28;20024;-73
2021/01/06 07:29:16;;;;;;;16.13;9.75;;;;;;;;;;5071296;28;20056;-72
2021/01/06 07:31:51;;;;;;;19.33;9.43;;;;;;;;;;5072709;28;20054;-73
2021/01/06 07:34:20;;;;;;;15.57;9.07;;;;;;;;;;5072645;28;20032;-73
2021/01/06 07:36:48;;;;;;;16.35;9.35;;;;;;;;;;5069365;28;20016;-73
2021/01/06 07:39:22;;;;;;;20.88;9.82;;;;;;;;;;5061726;28;20092;-73
2021/01/06 07:41:48;;;;;;;14.15;5.75;;;;;;;;;;5060963;28;20051;-72
2021/01/06 07:44:17;;;;;;;17.08;9.43;;;;;;;;;;5060349;28;20021;-72
2021/01/06 07:47:01;;;;;;;18.95;10.02;;;;;;;;;;5064934;28;20036;-72
2021/01/06 07:49:37;;;;;;;19.83;9.82;;;;;;;;;;5052122;28;20021;-72
2021/01/06 07:52:21;;;;;;;18.80;10.95;;;;;;;;;;5052067;28;20044;-72
2021/01/06 07:55:06;;;;;;;19.67;10.25;;;;;;;;;;5052415;28;20024;-72
2021/01/06 07:57:47;;;;;;;15.65;9.00;;;;;;;;;;5051777;28;20059;-72
2021/01/06 08:00:17;;;;;;;20.70;10.23;;;;;;;;;;5050560;28;20020;-72
2021/01/06 08:02:57;;;;;;;15.82;7.13;;;;;;;;;;5052175;28;20020;-72
2021/01/06 08:05:28;;;;;;;17.05;10.10;;;;;;;;;;5050731;28;20094;-72
2021/01/06 08:08:02;;;;;;;18.33;10.35;;;;;;;;;;5052288;28;20047;-72
2021/01/06 08:10:28;;;;;;;15.10;8.05;;;;;;;;;;5052147;28;20101;-72
2021/01/06 08:13:08;;;;;;;14.45;7.13;;;;;;;;;;5050600;28;20458;-72
2021/01/06 08:15:33;;;;;;;17.45;7.05;;;;;;;;;;5051512;28;20041;-72
2021/01/06 08:18:05;;;;;;;17.95;11.35;;;;;;;;;;5050716;28;20064;-73
2021/01/06 08:20:34;;;;;;;21.60;12.35;;;;;;;;;;5051975;28;20052;-73
2021/01/06 08:23:20;;;;;;;20.55;9.90;;;;;;;;;;5052352;28;20067;-73
2021/01/06 08:26:12;;;;;;;16.73;7.15;;;;;;;;;;5056397;28;20453;-74
2021/01/06 08:28:38;;;;;;;10.30;4.57;;;;;;;;;;5053196;28;20192;-73
2021/01/06 08:31:10;;;;;;;20.65;11.32;;;;;;;;;;5054803;28;20656;-74
2021/01/06 08:33:46;;;;;;;17.38;10.30;;;;;;;;;;5054540;28;20083;-73
2021/01/06 08:36:12;;;;;;;14.90;5.53;;;;;;;;;;5054251;28;20525;-73
2021/01/06 08:38:44;;;;;;;17.30;8.63;;;;;;;;;;5053999;28;20530;-73
2021/01/06 08:41:25;;;;;;;18.38;10.20;;;;;;;;;;5054203;28;20362;-73
2021/01/06 08:43:51;;;;;;;17.50;10.13;;;;;;;;;;5055781;28;20480;-74
2021/01/06 08:46:25;;;;;;;17.23;10.98;;;;;;;;;;5055842;28;20053;-74
2021/01/06 08:48:51;;;;;;;15.63;10.23;;;;;;;;;;5055781;28;20013;-74
2021/01/06 08:51:29;;;;;;;17.27;8.98;;;;;;;;;;5055211;28;20083;-74
2021/01/06 08:53:55;;;;;;;15.05;9.75;;;;;;;;;;5055711;28;20028;-74
2021/01/06 08:56:23;;;;;;;11.40;5.85;;;;;;;;;;5054151;28;20464;-73
2021/01/06 08:58:51;;;;;;;20.73;9.35;;;;;;;;;;5054202;28;20069;-74
2021/01/06 09:01:29;;;;;;;15.25;9.50;;;;;;;;;;5053762;28;20349;-74
2021/01/06 09:03:55;;;;;;;15.98;9.38;;;;;;;;;;5053815;28;20020;-74
2021/01/06 09:06:22;;;;;;;13.25;5.25;;;;;;;;;;5055196;28;20048;-74
2021/01/06 09:08:55;;;;;;;16.83;9.27;;;;;;;;;;5055359;28;20023;-74
2021/01/06 09:11:29;;;;;;;14.07;8.80;;;;;;;;;;5055185;28;20031;-74
2021/01/06 09:14:13;;;;;;;16.17;9.57;;;;;;;;;;5055253;28;20067;-74
2021/01/06 09:16:48;;;;;;;14.43;8.88;;;;;;;;;;5054715;28;20389;-74
2021/01/06 09:19:36;;;;;;;15.88;8.40;;;;;;;;;;5053852;28;20392;-74
2021/01/06 09:22:02;;;;;;;12.02;5.07;;;;;;;;;;5055062;28;20453;-74
2021/01/06 09:24:33;;;;;;;20.10;8.95;;;;;;;;;;5054979;28;20027;-74
2021/01/06 09:27:20;;;;;;;11.20;5.38;;;;;;;;;;5053795;28;20029;-74
2021/01/06 09:29:46;;;;;;;12.52;8.70;;;;;;;;;;5057783;28;20033;-73
2021/01/06 09:32:17;;;;;;;14.40;5.28;;;;;;;;;;5054993;28;20082;-74
2021/01/06 09:34:44;;;;;;;11.80;5.72;;;;;;;;;;5053524;28;20032;-74
2021/01/06 09:37:21;;;;;;;9.25;3.85;;;;;;;;;;5053568;28;20354;-74
2021/01/06 09:39:48;;;;;;;16.58;9.48;;;;;;;;;;5053545;28;20017;-73
2021/01/06 09:42:15;;;;;;;17.90;10.93;;;;;;;;;;5054363;28;20041;-73
2021/01/06 09:44:41;;;;;;;15.88;9.00;;;;;;;;;;5053139;28;20017;-73
2021/01/06 09:47:13;;;;;;;15.57;8.95;;;;;;;;;;5054929;28;20079;-73
2021/01/06 09:49:39;;;;;;;12.85;8.75;;;;;;;;;;5054770;28;20123;-72
2021/01/06 09:52:08;;;;;;;13.85;8.65;;;;;;;;;;5053135;28;20453;-73
2021/01/06 09:54:35;;;;;;;13.73;6.82;;;;;;;;;;5053924;28;20097;-72
2021/01/06 09:57:01;;;;;;;13.38;8.23;;;;;;;;;;5054433;28;20453;-72
2021/01/06 09:59:29;;;;;;;15.82;9.23;;;;;;;;;;5052790;28;20461;-72
2021/01/06 10:02:07;;;;;;;9.85;4.40;;;;;;;;;;5054283;28;20025;-72
2021/01/06 10:04:35;;;;;;;13.90;6.05;;;;;;;;;;5054836;28;20481;-72
2021/01/06 10:07:05;;;;;;;16.05;8.88;;;;;;;;;;5054331;28;20025;-73
2021/01/06 10:09:35;;;;;;;16.05;8.88;;;;;;;;;;5052671;28;20032;-73
2021/01/06 10:12:22;;;;;;;15.80;8.25;;;;;;;;;;5054155;28;20017;-73
2021/01/06 10:15:08;;;;;;;13.93;6.53;;;;;;;;;;5052914;28;20060;-73
2021/01/06 10:17:57;;;;;;;14.55;7.05;;;;;;;;;;5053881;28;20021;-72
2021/01/06 10:20:30;;;;;;;20.23;10.85;;;;;;;;;;5061472;28;20041;-73
2021/01/06 10:23:00;;;;;;;11.25;5.82;;;;;;;;;;5053943;28;20024;-72
2021/01/06 10:25:45;;;;;;;13.80;6.80;;;;;;;;;;5052523;28;20116;-73
2021/01/06 10:28:28;;;;;;;13.77;6.93;;;;;;;;;;5052300;28;20027;-73
2021/01/06 10:31:08;;;;;;;13.75;5.15;;;;;;;;;;5053918;28;20029;-73
2021/01/06 10:33:34;;;;;;;12.25;4.07;;;;;;;;;;5052350;28;20081;-74
2021/01/06 10:36:14;;;;;;;11.65;5.47;;;;;;;;;;5053795;28;20025;-74
2021/01/06 10:38:46;;;;;;;17.90;8.60;;;;;;;;;;5053527;28;20195;-74
2021/01/06 10:41:12;;;;;;;11.57;5.43;;;;;;;;;;5053718;28;20120;-73
2021/01/06 10:43:40;;;;;;;17.75;9.60;;;;;;;;;;5051849;28;20056;-74
2021/01/06 10:46:25;;;;;;;9.35;4.38;;;;;;;;;;5053293;28;20364;-74
2021/01/06 10:48:52;;;;;;;14.07;7.05;;;;;;;;;;5053594;28;20045;-74
2021/01/06 10:51:37;;;;;;;16.10;8.48;;;;;;;;;;5053399;28;20460;-74
2021/01/06 10:54:03;;;;;;;10.88;6.13;;;;;;;;;;5053386;28;20070;-75
2021/01/06 10:56:30;;;;;;;8.40;3.85;;;;;;;;;;5052000;28;20036;-73
2021/01/06 10:58:58;;;;;;;15.32;8.63;;;;;;;;;;5053261;28;20013;-74
2021/01/06 11:01:27;;;;;;;9.75;4.03;;;;;;;;;;5053043;28;20100;-74
2021/01/06 11:04:12;;;;;;;10.90;6.07;;;;;;;;;;5053195;28;20025;-74
2021/01/06 11:06:53;;;;;;;7.30;3.38;;;;;;;;;;5052972;28;20029;-72
2021/01/06 11:09:34;;;;;;;19.30;8.10;;;;;;;;;;5052940;28;20400;-74
2021/01/06 11:12:05;;;;;;;10.52;4.90;;;;;;;;;;5053050;28;20461;-74
2021/01/06 11:14:56;;;;;;;12.10;5.82;;;;;;;;;;5052507;28;20459;-73
2021/01/06 11:17:30;;;;;;;12.00;7.25;;;;;;;;;;5052649;28;20482;-73
2021/01/06 11:19:58;;;;;;;11.32;6.50;;;;;;;;;;5052817;28;20025;-74
2021/01/06 11:22:43;;;;;;;14.77;7.40;;;;;;;;;;5051335;28;20066;-73
2021/01/06 11:25:09;;;;;;;15.93;6.68;;;;;;;;;;5051420;28;20039;-72
2021/01/06 11:27:47;;;;;;;11.10;6.35;;;;;;;;;;5051267;28;20025;-72
2021/01/06 11:30:19;;;;;;;15.45;3.80;;;;;;;;;;5051298;28;20021;-71
2021/01/06 11:32:45;;;;;;;13.25;5.38;;;;;;;;;;5052438;28;20100;-71
2021/01/06 11:35:16;;;;;;;11.57;5.25;;;;;;;;;;5051123;28;20477;-72
2021/01/06 11:37:43;;;;;;;11.80;6.28;;;;;;;;;;5052353;28;20028;-72
2021/01/06 11:40:32;;;;;;;10.50;5.65;;;;;;;;;;5052104;28;20433;-72
2021/01/06 11:43:01;;;;;;;11.30;5.25;;;;;;;;;;5052005;28;20028;-72
2021/01/06 11:45:30;;;;;;;9.57;5.57;;;;;;;;;;5050829;28;20052;-72
2021/01/06 11:48:05;;;;;;;9.50;5.50;;;;;;;;;;5052131;28;20013;-72
2021/01/06 11:50:37;;;;;;;10.07;3.85;;;;;;;;;;5052037;28;20028;-72
2021/01/06 11:53:18;;;;;;;9.98;5.45;;;;;;;;;;5050954;28;20375;-72
2021/01/06 11:55:47;;;;;;;11.40;6.20;;;;;;;;;;5052053;28;20032;-72
2021/01/06 11:58:23;;;;;;;9.35;4.82;;;;;;;;;;5051337;28;20087;-71
2021/01/06 12:01:12;;;;;;;11.18;5.20;;;;;;;;;;5050639;28;20475;-71
2021/01/06 12:03:42;;;;;;;10.32;5.72;;;;;;;;;;5053476;28;20028;-72
2021/01/06 12:06:08;;;;;;;;;;;;;;;;;;5052528;28;20029;-73
2021/01/06 12:08:57;;;;;;;10.10;5.28;;;;;;;;;;5050577;28;19951;-72
2021/01/06 12:11:35;;;;;;;9.63;4.70;;;;;;;;;;5050869;28;20473;-71
2021/01/06 12:14:22;;;;;;;9.35;4.50;;;;;;;;;;5050932;28;20047;-72
2021/01/06 12:17:06;;;;;;;8.98;5.05;;;;;;;;;;5051822;28;20056;-72
2021/01/06 12:19:36;;;;;;;9.77;4.90;;;;;;;;;;5051794;28;20025;-72
2021/01/06 12:22:02;;;;;;;9.85;5.22;;;;;;;;;;5052125;28;20021;-73
2021/01/06 12:24:31;;;;;;;9.18;4.85;;;;;;;;;;5051556;28;20032;-71
2021/01/06 12:27:09;;;;;;;10.45;4.88;;;;;;;;;;5052187;28;20017;-73
2021/01/06 12:29:54;;;;;;;11.05;5.22;;;;;;;;;;5051601;28;20021;-72
2021/01/06 12:32:34;;;;;;;10.63;5.45;;;;;;;;;;5051994;28;20048;-72
2021/01/06 12:35:04;;;;;;;8.25;4.28;;;;;;;;;;5052058;28;20025;-73
2021/01/06 12:37:31;;;;;;;8.80;4.07;;;;;;;;;;5050453;28;20048;-71
2021/01/06 12:39:57;;;;;;;11.10;5.22;;;;;;;;;;5051689;28;20025;-73
2021/01/06 12:42:26;;;;;;;8.82;4.15;;;;;;;;;;5050218;28;20029;-72
2021/01/06 12:45:00;;;;;;;8.45;3.83;;;;;;;;;;5050187;28;20020;-73
2021/01/06 12:47:30;;;;;;;10.18;4.15;;;;;;;;;;5051887;28;20024;-74
2021/01/06 12:50:01;;;;;;;7.75;3.60;;;;;;;;;;5051777;28;20017;-73
2021/01/06 12:52:36;;;;;;;11.82;5.80;;;;;;;;;;5051792;28;20052;-74
2021/01/06 12:55:11;;;;;;;11.80;5.05;;;;;;;;;;5051530;28;20457;-74
2021/01/06 12:57:49;;;;;;;10.00;4.03;;;;;;;;;;5050265;28;20045;-73
2021/01/06 13:00:35;;;;;;;7.80;4.15;;;;;;;;;;5050363;28;20025;-74
2021/01/06 13:03:07;;;;;;;7.88;3.40;;;;;;;;;;5051541;28;20017;-73
2021/01/06 13:05:33;;;;;;;6.40;3.78;;;;;;;;;;5051369;28;20413;-74
2021/01/06 13:08:00;;;;;;;10.30;4.90;;;;;;;;;;5051793;28;20067;-74
2021/01/06 13:10:44;;;;;;;7.47;3.80;;;;;;;;;;5055319;28;20024;-74
2021/01/06 13:13:28;;;;;;;7.43;3.25;;;;;;;;;;5055431;28;20021;-74
2021/01/06 13:16:15;;;;;;;9.10;4.72;;;;;;;;;;5055022;28;20013;-74
2021/01/06 13:18:46;;;;;;;7.55;3.22;;;;;;;;;;5053722;28;20021;-73
2021/01/06 13:21:31;;;;;;;9.68;4.05;;;;;;;;;;5055071;28;20033;-73
2021/01/06 13:23:57;;;;;;;9.80;3.58;;;;;;;;;;5055093;28;20021;-73
2021/01/06 13:26:26;;;;;;;7.30;3.35;;;;;;;;;;5053650;28;20029;-72
2021/01/06 13:29:04;;;;;;;10.75;3.75;;;;;;;;;;5054935;28;20088;-73
2021/01/06 13:31:38;;;;;;;6.40;2.97;;;;;;;;;;5075270;28;20021;-73
2021/01/06 13:34:24;;;;;;;7.20;2.90;;;;;;;;;;5073579;28;20020;-73
2021/01/06 13:36:55;;;;;;;6.85;2.78;;;;;;;;;;5074725;28;20021;-73
2021/01/06 13:39:30;;;;;;;6.03;2.83;;;;;;;;;;5075202;28;20097;-73
2021/01/06 13:41:57;;;;;;;6.97;3.00;;;;;;;;;;5073040;28;20064;-74
2021/01/06 13:44:33;;;;;;;6.60;3.47;;;;;;;;;;5073241;28;20029;-74
2021/01/06 13:47:08;;;;;;;6.80;2.78;;;;;;;;;;5073344;28;20024;-74
2021/01/06 13:49:37;;;;;;;7.20;3.50;;;;;;;;;;5072981;28;20468;-74
2021/01/06 13:52:05;;;;;;;5.47;2.80;;;;;;;;;;5074688;28;20031;-75
2021/01/06 13:54:52;;;;;;;5.43;2.88;;;;;;;;;;5074408;28;20067;-74
2021/01/06 13:57:22;;;;;;;8.02;3.70;;;;;;;;;;5074663;28;20016;-74
2021/01/06 13:59:52;;;;;;;14.07;7.07;;;;;;;;;;5074062;28;20021;-74
2021/01/06 14:02:18;;;;;;;11.40;4.90;;;;;;;;;;5074258;28;20424;-72
2021/01/06 14:04:47;;;;;;;8.70;5.10;;;;;;;;;;5074097;28;20021;-72
2021/01/06 14:07:16;;;;;;;8.63;3.92;;;;;;;;;;5074433;28;20025;-72
2021/01/06 14:09:45;;;;;;;9.00;3.95;;;;;;;;;;5071865;28;20044;-74
2021/01/06 14:12:27;;;;;;;12.50;5.82;;;;;;;;;;5072959;28;20504;-73
2021/01/06 14:15:11;;;;;;;10.90;5.57;;;;;;;;;;5074080;28;20027;-74
2021/01/06 14:17:39;;;;;;;8.18;4.15;;;;;;;;;;5073649;28;20358;-74
2021/01/06 14:20:22;;;;;;;7.28;3.55;;;;;;;;;;5071925;28;20044;-73
2021/01/06 14:23:01;;;;;;;9.75;4.57;;;;;;;;;;5073907;28;20073;-73
2021/01/06 14:25:29;;;;;;;10.35;4.63;;;;;;;;;;5072679;28;20032;-74
2021/01/06 14:28:01;;;;;;;10.77;5.35;;;;;;;;;;5072472;28;20193;-74
2021/01/06 14:30:30;;;;;;;10.40;5.63;;;;;;;;;;5072683;28;20185;-75
2021/01/06 14:33:16;;;;;;;15.43;8.48;;;;;;;;;;5072254;28;20479;-76
2021/01/06 14:35:47;;;;;;;13.07;5.93;;;;;;;;;;5073675;28;20483;-75
2021/01/06 14:38:25;;;;;;;10.27;5.30;;;;;;;;;;5072369;28;20111;-72
2021/01/06 14:40:54;;;;;;;9.30;3.83;;;;;;;;;;5073325;28;20047;-74
2021/01/06 14:43:20;;;;;;;10.13;4.45;;;;;;;;;;5073339;28;20474;-71
2021/01/06 14:45:59;;;;;;;8.32;3.58;;;;;;;;;;5073314;28;20074;-72
2021/01/06 14:48:27;;;;;;;7.57;4.40;;;;;;;;;;5072298;28;20047;-75
2021/01/06 14:51:11;;;;;;;13.25;5.57;;;;;;;;;;5071540;28;20024;-75
2021/01/06 14:53:41;;;;;;;10.63;4.88;;;;;;;;;;5073115;28;20020;-76
2021/01/06 14:56:10;;;;;;;10.53;5.00;;;;;;;;;;5072081;28;20019;-76